Time;durP1;ratioP1;P1;durP2;ratioP2;P2;SDS_P1;SDS_P2;PMS_P1;PMS_P2;Temp;Humidity;BMP_temperature;BMP_pressure;BME280_temperature;BME280_humidity;BME280_pressure;Samples;Min_cycle;Max_cycle;Signal;HPM_P1;HPM_P2
2023/07/08 00:01:08;;;;;;;19.58;8.52;;;27.10;90.50;;;;;;5051316;28;20043;-74
2023/07/08 00:04:12;;;;;;;17.23;8.82;;;27.00;90.80;;;;;;5051347;28;20505;-74
2023/07/08 00:07:19;;;;;;;23.33;9.57;;;26.90;90.90;;;;;;5051105;28;20056;-74
2023/07/08 00:10:25;;;;;;;13.57;8.77;;;26.90;91.00;;;;;;5050908;28;20048;-74
2023/07/08 00:13:29;;;;;;;18.70;8.68;;;26.90;91.00;;;;;;5050689;28;20036;-74
2023/07/08 00:16:34;;;;;;;17.13;8.13;;;26.90;91.00;;;;;;5049954;28;20047;-74
2023/07/08 00:19:39;;;;;;;14.85;8.63;;;26.90;90.90;;;;;;5050488;28;20408;-74
2023/07/08 00:22:46;;;;;;;17.30;8.15;;;26.90;90.90;;;;;;5050647;28;20040;-74
2023/07/08 00:25:51;;;;;;;20.38;9.07;;;26.80;91.00;;;;;;5051101;28;20056;-74
2023/07/08 00:28:56;;;;;;;20.35;9.80;;;26.80;91.00;;;;;;5051088;28;20389;-74
2023/07/08 00:31:59;;;;;;;19.10;8.52;;;26.80;91.00;;;;;;5050108;28;20051;-74
2023/07/08 00:35:04;;;;;;;15.82;8.40;;;26.80;91.10;;;;;;5050842;28;20040;-74
2023/07/08 00:38:26;;;;;;;14.05;7.80;;;26.80;91.10;;;;;;5049796;28;20059;-74
2023/07/08 00:41:34;;;;;;;19.55;8.95;;;26.70;91.20;;;;;;5049731;28;20048;-74
2023/07/08 00:44:39;;;;;;;17.85;8.55;;;26.70;91.40;;;;;;5049734;28;20044;-74
2023/07/08 00:47:44;;;;;;;23.00;9.00;;;26.60;91.40;;;;;;5049771;28;20629;-74
2023/07/08 00:50:49;;;;;;;26.58;9.15;;;26.60;91.40;;;;;;5049811;28;20044;-74
2023/07/08 00:53:53;;;;;;;20.92;8.80;;;26.60;91.50;;;;;;5050957;28;20044;-74
2023/07/08 00:57:02;;;;;;;17.48;9.50;;;26.60;91.40;;;;;;5054502;28;20044;-74
2023/07/08 01:00:09;;;;;;;24.55;9.52;;;26.60;91.40;;;;;;5053699;28;20365;-74
2023/07/08 01:03:13;;;;;;;19.95;9.50;;;26.40;91.70;;;;;;5054158;28;20511;-74
2023/07/08 01:06:19;;;;;;;25.77;10.52;;;26.40;91.70;;;;;;5054423;28;20055;-74
2023/07/08 01:09:30;;;;;;;16.42;10.55;;;26.40;91.80;;;;;;5053338;28;20044;-74
2023/07/08 01:12:41;;;;;;;20.80;10.73;;;26.40;91.90;;;;;;5054364;28;20044;-74
2023/07/08 01:15:46;;;;;;;19.52;11.23;;;26.30;91.90;;;;;;5042066;28;20408;-74
2023/07/08 01:18:53;;;;;;;20.45;10.18;;;26.30;91.90;;;;;;5053902;28;20052;-73
2023/07/08 01:21:59;;;;;;;24.73;10.10;;;26.30;91.90;;;;;;5054297;28;20052;-74
2023/07/08 01:25:05;;;;;;;20.25;10.18;;;26.30;91.90;;;;;;5054242;28;20052;-74
2023/07/08 01:28:10;;;;;;;15.68;9.32;;;26.20;91.90;;;;;;5054247;28;20504;-74
2023/07/08 01:31:14;;;;;;;17.95;9.77;;;26.20;91.70;;;;;;5052836;28;20044;-74
2023/07/08 01:34:19;;;;;;;21.52;9.10;;;26.30;91.40;;;;;;5053084;28;20044;-74
2023/07/08 01:37:25;;;;;;;16.42;8.43;;;26.30;91.40;;;;;;5052772;28;20043;-74
2023/07/08 01:40:33;;;;;;;16.25;9.48;;;26.30;91.30;;;;;;5053830;28;20068;-74
2023/07/08 01:43:38;;;;;;;14.45;8.38;;;26.30;91.60;;;;;;5053084;28;20056;-75
2023/07/08 01:46:42;;;;;;;20.83;8.90;;;26.30;91.40;;;;;;5053700;28;20044;-75
2023/07/08 01:49:48;;;;;;;11.65;7.78;;;26.30;91.50;;;;;;5053486;28;20044;-74
2023/07/08 01:52:54;;;;;;;14.60;7.60;;;26.20;91.40;;;;;;5052511;28;20385;-74
2023/07/08 01:55:58;;;;;;;14.18;8.57;;;26.20;91.40;;;;;;5053630;28;20036;-74
2023/07/08 01:59:04;;;;;;;12.98;7.60;;;26.10;91.50;;;;;;5052279;28;20064;-74
2023/07/08 02:02:10;;;;;;;12.45;7.13;;;26.10;91.60;;;;;;5053221;28;20048;-74
2023/07/08 02:05:14;;;;;;;15.95;7.75;;;26.00;91.70;;;;;;5052487;28;20044;-74
2023/07/08 02:08:19;;;;;;;16.15;7.68;;;25.90;91.30;;;;;;5052358;28;20044;-74
2023/07/08 02:11:23;;;;;;;20.50;8.30;;;25.90;91.40;;;;;;5053293;28;20640;-74
2023/07/08 02:14:27;;;;;;;19.05;8.77;;;25.90;91.70;;;;;;5053339;28;20067;-74
2023/07/08 02:17:31;;;;;;;16.85;7.97;;;25.80;91.80;;;;;;5053029;28;20179;-74
2023/07/08 02:20:35;;;;;;;16.35;7.90;;;25.90;91.70;;;;;;5051896;28;20044;-74
2023/07/08 02:23:40;;;;;;;15.68;8.00;;;25.90;91.60;;;;;;5040822;28;20047;-75
2023/07/08 02:26:47;;;;;;;13.98;8.25;;;25.80;91.50;;;;;;5053088;28;20484;-75
2023/07/08 02:29:51;;;;;;;16.15;8.38;;;25.50;91.90;;;;;;5052980;28;20052;-75
2023/07/08 02:32:57;;;;;;;15.65;7.35;;;25.40;92.30;;;;;;5051897;28;20594;-75
2023/07/08 02:36:02;;;;;;;13.38;7.38;;;25.40;92.20;;;;;;5052958;28;20051;-75
2023/07/08 02:39:06;;;;;;;13.18;7.32;;;25.40;92.30;;;;;;5051748;28;20048;-75
2023/07/08 02:42:10;;;;;;;13.35;7.55;;;25.40;92.20;;;;;;5051880;28;20401;-75
2023/07/08 02:45:14;;;;;;;13.50;7.13;;;25.50;92.20;;;;;;5040344;28;20516;-75
2023/07/08 02:48:19;;;;;;;11.32;6.82;;;25.60;92.10;;;;;;5052655;28;20393;-75
2023/07/08 02:51:23;;;;;;;11.65;6.32;;;25.70;91.90;;;;;;5052108;28;20056;-74
2023/07/08 02:54:27;;;;;;;12.50;7.53;;;25.80;91.80;;;;;;5051649;28;20051;-75
2023/07/08 02:57:30;;;;;;;11.40;6.90;;;26.00;91.70;;;;;;5052083;28;20392;-72
2023/07/08 03:00:37;;;;;;;9.27;6.13;;;26.10;91.50;;;;;;5052049;28;20056;-74
2023/07/08 03:03:41;;;;;;;11.85;6.93;;;26.20;91.30;;;;;;5052187;28;20044;-73
2023/07/08 03:06:45;;;;;;;13.43;6.63;;;26.30;91.00;;;;;;5052055;28;20048;-74
2023/07/08 03:09:49;;;;;;;18.90;6.43;;;26.30;91.00;;;;;;5052025;28;20048;-74
2023/07/08 03:12:53;;;;;;;13.30;6.72;;;26.20;91.00;;;;;;5051884;28;20052;-74
2023/07/08 03:16:01;;;;;;;14.85;6.93;;;26.20;91.00;;;;;;5051343;28;20063;-74
2023/07/08 03:19:10;;;;;;;9.98;7.00;;;26.20;91.00;;;;;;5050604;28;20075;-73
2023/07/08 03:22:14;;;;;;;11.00;7.15;;;26.10;91.10;;;;;;5051487;28;20048;-74
2023/07/08 03:25:19;;;;;;;10.32;6.72;;;26.20;91.20;;;;;;5039423;28;20460;-74
2023/07/08 03:28:25;;;;;;;15.88;7.15;;;26.10;91.20;;;;;;5050774;28;20052;-74
2023/07/08 03:31:31;;;;;;;14.98;7.63;;;26.10;91.40;;;;;;5050884;28;20112;-72
2023/07/08 03:34:36;;;;;;;15.43;7.40;;;26.10;91.60;;;;;;5039760;28;20051;-73
2023/07/08 03:37:40;;;;;;;10.05;7.90;;;25.90;91.90;;;;;;5051494;28;20036;-74
2023/07/08 03:40:45;;;;;;;15.98;7.90;;;25.80;92.10;;;;;;5050857;28;20068;-74
2023/07/08 03:43:50;;;;;;;17.00;8.55;;;25.60;92.30;;;;;;5050545;28;20048;-74
2023/07/08 03:46:55;;;;;;;14.40;7.75;;;25.50;92.50;;;;;;5051405;28;20036;-74
2023/07/08 03:49:58;;;;;;;15.82;7.72;;;25.60;92.60;;;;;;5051422;28;20100;-74
2023/07/08 03:53:02;;;;;;;17.10;9.57;;;25.60;92.40;;;;;;5050728;28;20068;-74
2023/07/08 03:56:13;;;;;;;15.82;10.48;;;25.60;92.50;;;;;;5050628;28;20151;-74
2023/07/08 03:59:18;;;;;;;22.13;11.45;;;25.60;92.40;;;;;;5050209;28;20060;-75
2023/07/08 04:02:23;;;;;;;18.05;10.18;;;25.70;92.30;;;;;;5050399;28;20268;-74
2023/07/08 04:05:27;;;;;;;20.20;11.65;;;25.70;92.30;;;;;;5050516;28;20040;-74
2023/07/08 04:08:31;;;;;;;25.50;13.63;;;25.60;92.50;;;;;;5050551;28;20040;-75
2023/07/08 04:11:36;;;;;;;17.67;11.60;;;25.60;92.50;;;;;;5050156;28;20044;-74
2023/07/08 04:14:42;;;;;;;18.15;9.98;;;25.60;92.60;;;;;;5051081;28;20047;-74
2023/07/08 04:17:49;;;;;;;15.90;10.45;;;25.60;92.50;;;;;;5050987;28;20048;-75
2023/07/08 04:20:53;;;;;;;15.73;9.25;;;25.70;92.60;;;;;;5049866;28;20048;-74
2023/07/08 04:23:56;;;;;;;15.90;8.65;;;25.80;92.40;;;;;;5051138;28;20087;-75
2023/07/08 04:27:00;;;;;;;21.88;8.77;;;25.80;92.30;;;;;;5050957;28;20393;-73
2023/07/08 04:30:05;;;;;;;11.77;7.22;;;25.90;92.00;;;;;;5050789;28;20047;-74
2023/07/08 04:33:11;;;;;;;19.90;10.05;;;26.00;92.00;;;;;;5050753;28;20047;-75
2023/07/08 04:36:15;;;;;;;38.53;10.25;;;26.10;92.00;;;;;;5050856;28;20047;-75
2023/07/08 04:39:19;;;;;;;66.93;14.48;;;26.10;92.00;;;;;;5050464;28;20040;-74
2023/07/08 04:42:23;;;;;;;34.28;11.80;;;26.20;92.30;;;;;;5050427;28;20052;-74
2023/07/08 04:45:27;;;;;;;17.48;9.45;;;26.10;92.50;;;;;;5050782;28;20040;-74
2023/07/08 04:48:32;;;;;;;21.83;10.30;;;25.90;92.60;;;;;;5050489;28;20119;-74
2023/07/08 04:51:37;;;;;;;24.05;10.48;;;25.80;92.60;;;;;;5050754;28;20445;-74
2023/07/08 04:54:41;;;;;;;25.95;9.43;;;25.80;92.80;;;;;;5050695;28;20043;-74
2023/07/08 04:57:45;;;;;;;33.17;10.40;;;25.70;92.80;;;;;;5050745;28;20044;-75
2023/07/08 05:00:49;;;;;;;27.98;9.50;;;25.70;93.00;;;;;;5050431;28;20064;-75
2023/07/08 05:03:53;;;;;;;28.02;9.75;;;25.70;93.00;;;;;;5038436;28;20044;-75
2023/07/08 05:06:57;;;;;;;23.42;10.43;;;25.80;93.00;;;;;;5049779;28;20068;-74
2023/07/08 05:10:01;;;;;;;20.30;10.38;;;25.80;92.90;;;;;;5050556;28;20040;-74
2023/07/08 05:13:05;;;;;;;26.33;10.70;;;25.90;93.20;;;;;;5049746;28;20056;-75
2023/07/08 05:16:09;;;;;;;20.13;11.05;;;26.00;93.00;;;;;;5050426;28;20646;-74
2023/07/08 05:19:13;;;;;;;20.15;11.40;;;26.00;92.60;;;;;;5049975;28;20051;-75
2023/07/08 05:22:18;;;;;;;24.45;9.98;;;26.00;92.70;;;;;;5050503;28;20052;-74
2023/07/08 05:25:22;;;;;;;18.77;10.02;;;26.10;92.40;;;;;;5050631;28;20393;-73
2023/07/08 05:28:26;;;;;;;16.83;9.93;;;26.10;92.10;;;;;;5050278;28;20040;-74
2023/07/08 05:31:30;;;;;;;20.88;9.48;;;26.20;92.10;;;;;;5050282;28;20047;-74
2023/07/08 05:34:34;;;;;;;33.45;10.30;;;26.30;92.00;;;;;;5050453;28;20059;-68
2023/07/08 05:37:39;;;;;;;32.58;11.10;;;26.50;92.00;;;;;;5049779;28;20064;-67
2023/07/08 05:40:49;;;;;;;19.15;8.98;;;26.60;91.80;;;;;;5050486;28;20052;-66
2023/07/08 05:43:53;;;;;;;26.13;8.90;;;26.70;91.80;;;;;;5053296;28;20503;-66
2023/07/08 05:46:57;;;;;;;22.60;9.38;;;26.70;91.80;;;;;;5053307;28;20044;-66
2023/07/08 05:50:01;;;;;;;12.35;8.15;;;26.70;91.50;;;;;;5053559;28;20044;-66
2023/07/08 05:53:05;;;;;;;18.05;8.80;;;26.70;91.40;;;;;;5053343;28;20040;-66
2023/07/08 05:56:09;;;;;;;19.52;8.23;;;26.80;91.30;;;;;;5053421;28;20039;-66
2023/07/08 05:59:13;;;;;;;20.58;8.85;;;26.90;91.10;;;;;;5053423;28;20040;-67
2023/07/08 06:02:19;;;;;;;18.42;8.30;;;27.20;91.10;;;;;;5053154;28;20048;-66
2023/07/08 06:05:23;;;;;;;14.88;8.23;;;27.40;90.30;;;;;;5053184;28;20040;-66
2023/07/08 06:08:27;;;;;;;15.23;7.00;;;27.60;90.10;;;;;;5053420;28;20048;-66
2023/07/08 06:11:31;;;;;;;22.00;8.20;;;27.80;88.60;;;;;;5052830;28;20044;-66
2023/07/08 06:14:35;;;;;;;32.90;9.63;;;28.00;89.00;;;;;;5053117;28;20052;-66
2023/07/08 06:17:39;;;;;;;25.02;9.05;;;28.10;88.90;;;;;;5052810;28;20036;-65
2023/07/08 06:20:54;;;;;;;27.85;9.65;;;28.20;88.60;;;;;;5052506;28;20120;-66
2023/07/08 06:23:58;;;;;;;23.13;9.35;;;28.20;88.30;;;;;;5052831;28;20052;-65
2023/07/08 06:27:02;;;;;;;23.17;8.85;;;28.20;88.40;;;;;;5052844;28;20052;-65
2023/07/08 06:30:07;;;;;;;25.77;9.95;;;28.40;88.50;;;;;;5052778;28;20378;-65
2023/07/08 06:33:12;;;;;;;34.53;10.25;;;28.70;88.40;;;;;;5052735;28;20048;-65
2023/07/08 06:36:16;;;;;;;25.70;9.15;;;28.90;87.30;;;;;;5052651;28;20040;-64
2023/07/08 06:39:20;;;;;;;23.50;8.63;;;29.20;86.70;;;;;;5052529;28;20052;-63
2023/07/08 06:42:23;;;;;;;32.92;10.05;;;29.30;85.10;;;;;;5052654;28;20397;-63
2023/07/08 06:45:43;;;;;;;28.42;8.82;;;29.50;84.60;;;;;;5051638;28;20052;-62
2023/07/08 06:48:47;;;;;;;19.60;8.10;;;29.70;83.50;;;;;;5052227;28;20040;-62
2023/07/08 06:51:51;;;;;;;21.38;8.80;;;29.70;81.70;;;;;;5051838;28;20048;-63
2023/07/08 06:54:54;;;;;;;21.23;7.75;;;29.80;81.10;;;;;;5052522;28;20052;-64
2023/07/08 06:57:58;;;;;;;18.73;7.25;;;30.00;81.30;;;;;;5052138;28;20040;-64
2023/07/08 07:01:02;;;;;;;18.38;7.07;;;30.20;78.60;;;;;;5051963;28;20111;-66
2023/07/08 07:04:06;;;;;;;19.65;7.40;;;30.50;77.30;;;;;;5051582;28;20056;-66
2023/07/08 07:07:10;;;;;;;17.33;7.40;;;30.50;76.30;;;;;;5052118;28;20048;-67
2023/07/08 07:10:14;;;;;;;20.38;7.97;;;30.70;75.70;;;;;;5052751;28;20546;-65
2023/07/08 07:13:18;;;;;;;21.38;7.85;;;31.00;75.30;;;;;;5051963;28;20147;-63
2023/07/08 07:16:23;;;;;;;18.45;7.53;;;31.30;73.60;;;;;;5051855;28;20066;-64
2023/07/08 07:19:27;;;;;;;16.85;7.22;;;31.30;73.50;;;;;;5051473;28;20535;-64
2023/07/08 07:22:31;;;;;;;41.20;8.07;;;31.40;74.20;;;;;;5051536;28;20072;-63
2023/07/08 07:25:36;;;;;;;18.77;7.63;;;31.30;73.90;;;;;;5051959;28;20048;-62
2023/07/08 07:28:41;;;;;;;14.07;7.97;;;31.10;72.90;;;;;;5051690;28;20393;-63
2023/07/08 07:31:47;;;;;;;19.17;7.18;;;31.10;72.60;;;;;;5051767;28;20047;-63
2023/07/08 07:34:52;;;;;;;20.35;7.78;;;31.00;72.70;;;;;;5052356;28;20096;-67
2023/07/08 07:37:57;;;;;;;20.48;7.15;;;31.00;73.00;;;;;;5051395;28;20048;-66
2023/07/08 07:41:05;;;;;;;13.98;7.43;;;30.90;73.30;;;;;;5051055;28;20087;-65
2023/07/08 07:44:09;;;;;;;25.02;7.75;;;31.10;72.90;;;;;;5051421;28;20056;-64
2023/07/08 07:47:14;;;;;;;19.92;8.30;;;31.50;73.10;;;;;;5051472;28;20048;-64
2023/07/08 07:50:18;;;;;;;18.20;7.97;;;31.60;72.80;;;;;;5051203;28;20040;-63
2023/07/08 07:53:22;;;;;;;22.02;8.18;;;31.50;71.70;;;;;;5051377;28;20063;-66
2023/07/08 07:56:26;;;;;;;25.80;8.73;;;31.40;71.90;;;;;;5051319;28;20523;-67
2023/07/08 07:59:30;;;;;;;14.95;7.10;;;31.60;73.60;;;;;;5051187;28;20056;-64
2023/07/08 08:02:35;;;;;;;16.48;7.32;;;31.80;69.90;;;;;;5050651;28;20044;-64
2023/07/08 08:05:39;;;;;;;14.23;6.28;;;32.10;70.30;;;;;;5050990;28;20052;-63
2023/07/08 08:08:43;;;;;;;13.45;5.68;;;32.30;66.50;;;;;;5051193;28;20048;-65
2023/07/08 08:11:47;;;;;;;20.70;6.95;;;32.50;66.30;;;;;;5050949;28;20507;-65
2023/07/08 08:14:51;;;;;;;11.70;5.13;;;32.80;66.60;;;;;;5050909;28;20063;-65
2023/07/08 08:17:55;;;;;;;15.18;5.88;;;32.90;66.10;;;;;;5049451;28;20044;-65
2023/07/08 08:21:00;;;;;;;19.23;6.20;;;33.00;66.50;;;;;;5049271;28;20058;-66
2023/07/08 08:24:04;;;;;;;16.67;6.00;;;33.10;66.00;;;;;;5050913;28;20666;-64
2023/07/08 08:27:08;;;;;;;12.75;6.45;;;33.10;67.00;;;;;;5050386;28;20048;-66
2023/07/08 08:30:13;;;;;;;17.83;6.82;;;33.20;68.10;;;;;;5050682;28;20040;-66
2023/07/08 08:33:19;;;;;;;11.80;5.82;;;33.20;67.50;;;;;;5050567;28;20500;-65
2023/07/08 08:36:23;;;;;;;20.20;6.43;;;33.30;66.40;;;;;;5051036;28;20040;-66
2023/07/08 08:39:29;;;;;;;10.70;5.38;;;33.10;65.30;;;;;;5050601;28;20044;-65
2023/07/08 08:42:39;;;;;;;9.35;5.25;;;33.00;65.20;;;;;;5050546;28;20051;-65
2023/07/08 08:45:55;;;;;;;13.95;6.30;;;33.20;66.80;;;;;;5050310;28;20040;-64
2023/07/08 08:49:21;;;;;;;12.10;6.07;;;33.30;65.50;;;;;;5050823;28;20389;-66
2023/07/08 08:52:25;;;;;;;12.35;6.03;;;33.50;64.50;;;;;;5050388;28;20040;-64
2023/07/08 08:55:30;;;;;;;9.95;6.13;;;33.50;66.40;;;;;;5050641;28;20044;-66
2023/07/08 08:58:47;;;;;;;14.65;6.60;;;33.50;67.30;;;;;;5050734;28;20496;-66
2023/07/08 09:01:53;;;;;;;17.17;6.10;;;33.40;66.00;;;;;;5050326;28;20056;-66
2023/07/08 09:05:07;;;;;;;9.98;5.45;;;33.40;65.90;;;;;;5050710;28;20048;-67
2023/07/08 09:08:34;;;;;;;20.13;6.65;;;33.50;62.80;;;;;;5050522;28;20048;-65
2023/07/08 09:12:03;;;;;;;18.35;6.25;;;35.20;61.80;;;;;;5050444;28;20048;-65
2023/07/08 09:15:15;;;;;;;13.90;6.13;;;36.30;60.70;;;;;;5050523;28;20500;-65
2023/07/08 09:18:29;;;;;;;14.27;6.18;;;36.80;59.90;;;;;;5053645;28;20039;-64
2023/07/08 09:22:04;;;;;;;13.80;6.63;;;37.50;59.00;;;;;;5053675;28;20071;-65
2023/07/08 09:25:31;;;;;;;20.70;6.53;;;37.80;58.40;;;;;;5053012;28;20064;-65
2023/07/08 09:28:44;;;;;;;18.23;7.47;;;37.20;58.50;;;;;;5053805;28;20064;-65
2023/07/08 09:31:48;;;;;;;13.43;6.55;;;37.30;58.50;;;;;;5053507;28;20052;-65
2023/07/08 09:35:02;;;;;;;18.30;6.63;;;37.40;59.00;;;;;;5053785;28;20143;-64
2023/07/08 09:38:08;;;;;;;10.52;6.38;;;37.00;59.90;;;;;;5052555;28;20055;-66
2023/07/08 09:41:12;;;;;;;9.65;5.93;;;36.40;60.70;;;;;;5053229;28;20056;-65
2023/07/08 09:44:18;;;;;;;18.08;7.28;;;35.90;61.60;;;;;;5053528;28;20040;-65
2023/07/08 09:47:33;;;;;;;13.40;6.82;;;35.50;62.50;;;;;;5053607;28;20047;-65
2023/07/08 09:50:37;;;;;;;10.75;5.85;;;35.20;63.30;;;;;;5053660;28;20048;-64
2023/07/08 09:53:41;;;;;;;17.00;6.38;;;34.90;63.30;;;;;;5053403;28;20047;-65
2023/07/08 09:57:11;;;;;;;10.80;5.80;;;34.80;63.50;;;;;;5053643;28;20036;-65
2023/07/08 10:00:17;;;;;;;;;;;34.70;64.60;;;;;;5053461;28;20060;-65
2023/07/08 10:03:25;;;;;;;10.98;5.90;;;34.50;64.70;;;;;;5052494;28;19931;-66
2023/07/08 10:06:35;;;;;;;12.60;6.20;;;34.40;64.70;;;;;;5053114;28;20499;-66
2023/07/08 10:09:40;;;;;;;11.30;6.07;;;34.30;64.90;;;;;;5053498;28;20459;-65
2023/07/08 10:13:04;;;;;;;13.32;6.45;;;34.20;65.40;;;;;;5053490;28;20523;-65
2023/07/08 10:16:29;;;;;;;10.45;6.40;;;34.20;66.50;;;;;;5053178;28;20040;-65
2023/07/08 10:19:33;;;;;;;13.95;6.45;;;34.00;65.80;;;;;;5052765;28;20056;-65
2023/07/08 10:23:09;;;;;;;10.80;5.88;;;33.90;66.20;;;;;;5053269;28;20047;-65
2023/07/08 10:26:26;;;;;;;12.63;6.50;;;34.00;66.40;;;;;;5052340;28;20044;-66
2023/07/08 10:29:48;;;;;;;16.15;6.10;;;34.20;66.60;;;;;;5052658;28;20052;-66
2023/07/08 10:33:01;;;;;;;16.08;6.50;;;34.20;67.00;;;;;;5052636;28;20036;-66
2023/07/08 10:36:14;;;;;;;11.95;6.38;;;34.20;66.00;;;;;;5052760;28;20071;-66
2023/07/08 10:39:37;;;;;;;19.48;7.07;;;34.20;66.60;;;;;;5052565;28;20040;-66
2023/07/08 10:43:18;;;;;;;12.82;6.22;;;34.20;67.40;;;;;;5052737;28;20056;-66
2023/07/08 10:46:52;;;;;;;19.80;7.68;;;34.20;67.60;;;;;;5052413;28;20060;-66
2023/07/08 10:50:15;;;;;;;21.85;10.35;;;34.00;67.40;;;;;;5052612;28;20052;-66
2023/07/08 10:53:44;;;;;;;17.05;7.57;;;33.80;68.00;;;;;;5052579;28;20044;-65
2023/07/08 10:56:54;;;;;;;12.18;6.47;;;33.70;67.40;;;;;;5052257;28;20048;-66
2023/07/08 11:00:04;;;;;;;13.05;6.93;;;33.60;67.70;;;;;;5052104;28;20052;-67
2023/07/08 11:03:24;;;;;;;12.07;6.07;;;33.70;67.90;;;;;;5052203;28;20040;-66
2023/07/08 11:06:50;;;;;;;18.10;7.50;;;33.70;67.50;;;;;;5052384;28;20040;-66
2023/07/08 11:09:59;;;;;;;16.55;6.93;;;33.70;67.60;;;;;;5053083;28;20044;-65
2023/07/08 11:13:11;;;;;;;17.10;6.47;;;33.70;67.30;;;;;;5051814;28;20044;-65
2023/07/08 11:16:34;;;;;;;17.40;7.97;;;33.60;67.80;;;;;;5050914;28;20052;-65
2023/07/08 11:19:43;;;;;;;18.90;7.65;;;33.60;68.30;;;;;;5051654;28;20064;-65
2023/07/08 11:22:59;;;;;;;10.77;6.07;;;33.50;67.60;;;;;;5051944;28;20056;-66
2023/07/08 11:26:41;;;;;;;13.93;6.85;;;33.30;68.30;;;;;;5051675;28;20036;-65
2023/07/08 11:29:54;;;;;;;10.50;5.82;;;33.30;67.20;;;;;;5050780;28;20112;-66
2023/07/08 11:33:04;;;;;;;8.55;5.70;;;33.40;67.70;;;;;;5051591;28;20548;-65
2023/07/08 11:36:10;;;;;;;16.42;6.45;;;33.50;68.20;;;;;;5051362;28;20036;-66
2023/07/08 11:39:31;;;;;;;11.23;5.78;;;33.60;67.00;;;;;;5050382;28;20036;-65
2023/07/08 11:42:42;;;;;;;;;;;33.70;67.10;;;;;;5051254;28;20060;-66
2023/07/08 11:45:50;;;;;;;16.02;7.10;;;33.70;66.80;;;;;;5050054;28;20274;-66
2023/07/08 11:48:57;;;;;;;10.43;5.95;;;33.70;66.80;;;;;;5051272;28;20048;-66
2023/07/08 11:52:03;;;;;;;16.85;6.93;;;33.70;67.30;;;;;;5050236;28;20069;-65
2023/07/08 11:55:34;;;;;;;11.52;5.60;;;33.80;66.40;;;;;;5049387;28;20504;-65
2023/07/08 11:58:47;;;;;;;9.73;5.90;;;33.90;66.90;;;;;;5051280;28;20048;-65
2023/07/08 12:02:01;;;;;;;19.83;6.78;;;33.90;66.00;;;;;;5049458;28;20059;-66
2023/07/08 12:05:15;;;;;;;12.15;6.63;;;33.90;65.80;;;;;;5051237;28;20044;-66
2023/07/08 12:08:19;;;;;;;18.02;6.65;;;33.80;66.30;;;;;;5051395;28;20500;-65
2023/07/08 12:11:35;;;;;;;11.73;6.43;;;33.70;66.30;;;;;;5050936;28;20047;-66
2023/07/08 12:14:39;;;;;;;12.25;6.65;;;33.70;66.60;;;;;;5050883;28;20044;-64
2023/07/08 12:17:43;;;;;;;19.52;7.10;;;33.70;66.50;;;;;;5049223;28;20036;-64
2023/07/08 12:20:56;;;;;;;14.30;6.60;;;33.70;67.10;;;;;;5048668;28;20055;-64
2023/07/08 12:24:07;;;;;;;15.27;7.13;;;33.70;66.30;;;;;;5049133;28;20052;-65
2023/07/08 12:27:11;;;;;;;9.75;5.85;;;33.70;67.40;;;;;;5048343;28;20052;-65
2023/07/08 12:30:16;;;;;;;11.90;5.82;;;33.70;67.50;;;;;;5049322;28;20039;-64
2023/07/08 12:33:32;;;;;;;9.85;6.65;;;33.80;67.70;;;;;;5048647;28;20393;-64
2023/07/08 12:36:36;;;;;;;10.30;6.53;;;33.80;67.20;;;;;;5048779;28;20048;-67
2023/07/08 12:39:40;;;;;;;14.70;6.60;;;33.80;67.20;;;;;;5048523;28;20064;-65
2023/07/08 12:42:46;;;;;;;14.77;6.95;;;33.80;66.50;;;;;;5049141;28;20547;-66
2023/07/08 12:45:50;;;;;;;16.55;6.20;;;33.80;67.10;;;;;;5050350;28;20504;-65
2023/07/08 12:48:54;;;;;;;11.90;6.47;;;33.90;69.10;;;;;;5050556;28;20055;-65
2023/07/08 12:51:58;;;;;;;8.60;5.90;;;33.90;69.80;;;;;;5054679;28;20075;-65
2023/07/08 12:55:02;;;;;;;15.48;8.23;;;33.90;70.60;;;;;;5054467;28;20401;-65
2023/07/08 12:58:12;;;;;;;12.10;6.68;;;33.90;70.90;;;;;;5054813;28;20040;-65
2023/07/08 13:01:21;;;;;;;;;;;33.90;71.10;;;;;;5054423;28;20512;-65
2023/07/08 13:04:30;;;;;;;9.93;6.45;;;33.90;70.70;;;;;;5053667;28;19916;-65
2023/07/08 13:07:39;;;;;;;10.95;6.40;;;33.90;70.70;;;;;;5054431;28;20393;-65
2023/07/08 13:10:44;;;;;;;10.30;6.40;;;33.90;70.30;;;;;;5054389;28;20044;-65
2023/07/08 13:13:52;;;;;;;11.88;6.47;;;33.90;70.40;;;;;;5054283;28;20036;-65
2023/07/08 13:16:57;;;;;;;11.07;6.40;;;33.90;71.20;;;;;;5054220;28;20047;-64
2023/07/08 13:20:01;;;;;;;14.55;7.30;;;33.90;72.10;;;;;;5053989;28;20044;-65
2023/07/08 13:23:05;;;;;;;18.58;7.05;;;33.90;71.30;;;;;;5053694;28;20048;-64
2023/07/08 13:26:18;;;;;;;15.40;6.80;;;34.70;70.60;;;;;;5054271;28;20052;-64
2023/07/08 13:29:23;;;;;;;19.77;7.43;;;36.00;69.00;;;;;;5054092;28;20044;-63
2023/07/08 13:32:31;;;;;;;15.80;7.00;;;37.30;66.70;;;;;;5053096;28;20112;-63
2023/07/08 13:35:38;;;;;;;11.80;6.97;;;37.90;66.10;;;;;;5054036;28;20060;-64
2023/07/08 13:38:42;;;;;;;15.50;7.80;;;38.00;65.00;;;;;;5054108;28;20048;-64
2023/07/08 13:41:46;;;;;;;15.18;7.43;;;38.10;63.60;;;;;;5053727;28;20404;-65
2023/07/08 13:44:50;;;;;;;22.38;6.82;;;38.00;65.00;;;;;;5054051;28;20040;-65
2023/07/08 13:48:18;;;;;;;16.25;6.20;;;38.20;66.10;;;;;;5053916;28;20069;-65
2023/07/08 13:51:24;;;;;;;16.63;6.93;;;38.60;65.30;;;;;;5053804;28;20043;-65
2023/07/08 13:54:37;;;;;;;11.95;7.03;;;38.50;65.30;;;;;;5053735;28;20052;-65
2023/07/08 13:57:41;;;;;;;12.88;5.90;;;38.50;65.70;;;;;;5053423;28;20040;-65
2023/07/08 14:00:45;;;;;;;8.20;5.97;;;38.60;65.80;;;;;;5053028;28;20653;-64
2023/07/08 14:03:50;;;;;;;12.25;6.07;;;38.70;65.60;;;;;;5053449;28;20040;-64
2023/07/08 14:06:54;;;;;;;12.85;6.15;;;38.70;65.50;;;;;;5053678;28;20405;-63
2023/07/08 14:09:58;;;;;;;14.25;5.82;;;38.90;65.50;;;;;;5053145;28;20040;-63
2023/07/08 14:13:03;;;;;;;15.13;5.60;;;38.70;65.50;;;;;;5053239;28;20059;-63
2023/07/08 14:16:27;;;;;;;9.60;5.93;;;38.70;65.50;;;;;;5053140;28;20507;-64
2023/07/08 14:19:33;;;;;;;17.70;6.28;;;38.70;65.20;;;;;;5052653;28;20140;-63
2023/07/08 14:22:37;;;;;;;14.90;6.20;;;38.60;65.30;;;;;;5052845;28;20535;-64
2023/07/08 14:25:41;;;;;;;15.95;6.68;;;38.40;64.80;;;;;;5053279;28;20036;-64
2023/07/08 14:28:45;;;;;;;14.32;6.45;;;38.20;65.10;;;;;;5053055;28;20051;-64
2023/07/08 14:31:49;;;;;;;13.70;5.90;;;38.50;64.70;;;;;;5051709;28;20040;-63
2023/07/08 14:35:23;;;;;;;12.05;5.78;;;38.30;63.90;;;;;;5052755;28;20043;-63
2023/07/08 14:38:27;;;;;;;16.42;5.72;;;38.10;64.40;;;;;;5051836;28;20043;-62
2023/07/08 14:41:31;;;;;;;17.50;5.93;;;38.00;64.30;;;;;;5052571;28;20067;-62
2023/07/08 14:44:36;;;;;;;13.50;6.03;;;37.70;64.70;;;;;;5052762;28;20052;-64
2023/07/08 14:47:40;;;;;;;12.13;5.90;;;37.50;64.70;;;;;;5052432;28;20048;-63
2023/07/08 14:50:44;;;;;;;14.10;5.50;;;37.40;64.60;;;;;;5052433;28;20040;-65
2023/07/08 14:53:48;;;;;;;17.40;6.00;;;37.30;64.50;;;;;;5052158;28;20043;-69
2023/07/08 14:56:55;;;;;;;12.35;5.38;;;37.20;65.20;;;;;;5052255;28;20056;-69
2023/07/08 15:00:00;;;;;;;11.95;5.22;;;36.60;65.30;;;;;;5052143;28;20059;-69
2023/07/08 15:03:04;;;;;;;14.80;5.60;;;36.10;66.00;;;;;;5052113;28;20060;-69
2023/07/08 15:06:10;;;;;;;12.90;5.60;;;35.60;66.60;;;;;;5052275;28;20546;-69
2023/07/08 15:09:14;;;;;;;14.40;6.20;;;35.30;67.30;;;;;;5052238;28;20052;-70
2023/07/08 15:12:19;;;;;;;11.55;5.30;;;35.00;67.30;;;;;;5052012;28;20044;-68
2023/07/08 15:15:32;;;;;;;18.40;5.93;;;34.80;68.10;;;;;;5052247;28;20055;-69
2023/07/08 15:18:36;;;;;;;13.15;5.40;;;34.60;68.20;;;;;;5051548;28;20048;-68
2023/07/08 15:21:40;;;;;;;12.65;5.57;;;34.50;68.70;;;;;;5051362;28;20071;-71
2023/07/08 15:24:44;;;;;;;15.30;6.35;;;34.50;68.80;;;;;;5051118;28;20044;-71
2023/07/08 15:27:51;;;;;;;11.85;5.15;;;34.40;69.20;;;;;;5051047;28;20048;-70
2023/07/08 15:30:57;;;;;;;12.43;5.50;;;34.30;69.30;;;;;;5051289;28;20110;-70
2023/07/08 15:34:04;;;;;;;8.48;4.75;;;34.30;68.80;;;;;;5051569;28;20044;-71
2023/07/08 15:37:08;;;;;;;8.07;5.45;;;34.10;68.60;;;;;;5050640;28;20508;-71
2023/07/08 15:40:16;;;;;;;13.63;5.70;;;34.00;68.70;;;;;;5039212;28;20135;-71
2023/07/08 15:43:20;;;;;;;10.15;4.90;;;34.00;69.50;;;;;;5051296;28;20044;-71
2023/07/08 15:46:34;;;;;;;9.77;5.93;;;33.90;69.90;;;;;;5051492;28;20048;-70
2023/07/08 15:49:37;;;;;;;15.98;5.47;;;33.80;70.40;;;;;;5050939;28;20051;-70
2023/07/08 15:52:42;;;;;;;17.35;6.47;;;33.80;71.00;;;;;;5050979;28;20048;-70
2023/07/08 15:55:47;;;;;;;15.75;5.60;;;33.80;70.90;;;;;;5051390;28;20436;-71
2023/07/08 15:58:51;;;;;;;5.65;4.90;;;33.80;71.80;;;;;;5050938;28;20040;-71
2023/07/08 16:02:04;;;;;;;15.90;5.93;;;33.70;71.90;;;;;;5050868;28;20068;-71
2023/07/08 16:05:09;;;;;;;9.48;5.38;;;33.60;71.50;;;;;;5050791;28;20048;-72